sensor_id;sensor_type;location;lat;lon;timestamp;temperature;humidity
4755;DHT22;2391;47.212;7.542;2023-02-01T00:01:36;6.10;94.70
4755;DHT22;2391;47.212;7.542;2023-02-01T00:04:01;6.10;94.80
4755;DHT22;2391;47.212;7.542;2023-02-01T00:06:27;6.00;94.70
4755;DHT22;2391;47.212;7.542;2023-02-01T00:08:54;6.10;94.80
4755;DHT22;2391;47.212;7.542;2023-02-01T00:11:21;6.10;94.70
4755;DHT22;2391;47.212;7.542;2023-02-01T00:13:47;6.10;94.70
4755;DHT22;2391;47.212;7.542;2023-02-01T00:16:16;6.10;94.70
4755;DHT22;2391;47.212;7.542;2023-02-01T00:18:49;6.00;94.70
4755;DHT22;2391;47.212;7.542;2023-02-01T00:21:17;6.00;94.80
4755;DHT22;2391;47.212;7.542;2023-02-01T00:23:43;5.90;94.80
4755;DHT22;2391;47.212;7.542;2023-02-01T00:26:22;5.90;94.80
4755;DHT22;2391;47.212;7.542;2023-02-01T00:28:47;5.90;94.80
4755;DHT22;2391;47.212;7.542;2023-02-01T00:31:13;5.90;94.80
4755;DHT22;2391;47.212;7.542;2023-02-01T00:33:40;5.90;94.80
4755;DHT22;2391;47.212;7.542;2023-02-01T00:36:08;5.90;94.70
4755;DHT22;2391;47.212;7.542;2023-02-01T00:38:37;5.90;94.70
4755;DHT22;2391;47.212;7.542;2023-02-01T00:41:07;5.90;94.60
4755;DHT22;2391;47.212;7.542;2023-02-01T00:43:34;5.90;94.60
4755;DHT22;2391;47.212;7.542;2023-02-01T00:46:00;5.90;94.60
4755;DHT22;2391;47.212;7.542;2023-02-01T00:48:27;5.80;94.60
4755;DHT22;2391;47.212;7.542;2023-02-01T00:50:53;5.80;94.60
4755;DHT22;2391;47.212;7.542;2023-02-01T00:53:19;5.70;94.60
4755;DHT22;2391;47.212;7.542;2023-02-01T00:55:46;5.80;94.60
4755;DHT22;2391;47.212;7.542;2023-02-01T00:58:12;5.70;94.60
4755;DHT22;2391;47.212;7.542;2023-02-01T01:00:39;5.70;94.50
4755;DHT22;2391;47.212;7.542;2023-02-01T01:03:04;5.70;94.40
4755;DHT22;2391;47.212;7.542;2023-02-01T01:05:35;5.60;94.50
4755;DHT22;2391;47.212;7.542;2023-02-01T01:08:00;5.50;94.60
4755;DHT22;2391;47.212;7.542;2023-02-01T01:10:26;5.40;94.60
4755;DHT22;2391;47.212;7.542;2023-02-01T01:12:52;5.40;94.70
4755;DHT22;2391;47.212;7.542;2023-02-01T01:15:18;5.40;94.70
4755;DHT22;2391;47.212;7.542;2023-02-01T01:17:43;5.40;94.80
4755;DHT22;2391;47.212;7.542;2023-02-01T01:20:10;5.30;94.80
4755;DHT22;2391;47.212;7.542;2023-02-01T01:22:36;5.30;94.80
4755;DHT22;2391;47.212;7.542;2023-02-01T01:25:02;5.30;94.80
4755;DHT22;2391;47.212;7.542;2023-02-01T01:27:28;5.30;94.80
4755;DHT22;2391;47.212;7.542;2023-02-01T01:29:54;5.30;94.80
4755;DHT22;2391;47.212;7.542;2023-02-01T01:32:19;5.20;94.80
4755;DHT22;2391;47.212;7.542;2023-02-01T01:34:45;5.20;94.90
4755;DHT22;2391;47.212;7.542;2023-02-01T01:37:11;5.20;94.90
4755;DHT22;2391;47.212;7.542;2023-02-01T01:39:37;5.20;95.10
4755;DHT22;2391;47.212;7.542;2023-02-01T01:42:02;5.10;95.00
4755;DHT22;2391;47.212;7.542;2023-02-01T01:47:26;5.10;95.00
4755;DHT22;2391;47.212;7.542;2023-02-01T01:49:52;5.00;95.00
4755;DHT22;2391;47.212;7.542;2023-02-01T01:52:19;5.10;95.10
4755;DHT22;2391;47.212;7.542;2023-02-01T01:54:48;5.00;95.00
4755;DHT22;2391;47.212;7.542;2023-02-01T01:57:32;5.00;95.00
4755;DHT22;2391;47.212;7.542;2023-02-01T02:00:00;5.10;95.10
4755;DHT22;2391;47.212;7.542;2023-02-01T02:02:25;5.00;95.00
4755;DHT22;2391;47.212;7.542;2023-02-01T02:04:51;5.00;95.10
4755;DHT22;2391;47.212;7.542;2023-02-01T02:07:21;5.10;95.10
4755;DHT22;2391;47.212;7.542;2023-02-01T02:09:47;5.10;95.10
4755;DHT22;2391;47.212;7.542;2023-02-01T02:12:12;5.00;95.00
4755;DHT22;2391;47.212;7.542;2023-02-01T02:14:39;5.00;95.00
4755;DHT22;2391;47.212;7.542;2023-02-01T02:36:55;4.60;95.20
4755;DHT22;2391;47.212;7.542;2023-02-01T02:50:59;4.60;95.20
4755;DHT22;2391;47.212;7.542;2023-02-01T02:53:48;4.60;95.30
4755;DHT22;2391;47.212;7.542;2023-02-01T02:56:33;4.60;95.20
4755;DHT22;2391;47.212;7.542;2023-02-01T02:59:21;4.70;95.30
4755;DHT22;2391;47.212;7.542;2023-02-01T03:02:07;4.70;95.20
4755;DHT22;2391;47.212;7.542;2023-02-01T03:04:53;4.70;95.20
4755;DHT22;2391;47.212;7.542;2023-02-01T03:10:37;4.70;95.20
4755;DHT22;2391;47.212;7.542;2023-02-01T03:16:15;4.70;95.10
4755;DHT22;2391;47.212;7.542;2023-02-01T03:24:23;4.60;95.10
4755;DHT22;2391;47.212;7.542;2023-02-01T03:26:55;4.60;95.10
4755;DHT22;2391;47.212;7.542;2023-02-01T03:29:29;4.50;94.90
4755;DHT22;2391;47.212;7.542;2023-02-01T03:31:51;4.60;95.00
4755;DHT22;2391;47.212;7.542;2023-02-01T03:34:17;4.50;95.00
4755;DHT22;2391;47.212;7.542;2023-02-01T03:36:49;4.50;95.10
4755;DHT22;2391;47.212;7.542;2023-02-01T03:39:22;4.50;95.10
4755;DHT22;2391;47.212;7.542;2023-02-01T03:41:53;4.50;95.00
4755;DHT22;2391;47.212;7.542;2023-02-01T03:44:28;4.50;94.90
4755;DHT22;2391;47.212;7.542;2023-02-01T03:49:49;4.50;94.90
4755;DHT22;2391;47.212;7.542;2023-02-01T03:52:20;4.40;94.90
4755;DHT22;2391;47.212;7.542;2023-02-01T03:54:46;4.40;95.00
4755;DHT22;2391;47.212;7.542;2023-02-01T03:57:14;4.40;95.00
4755;DHT22;2391;47.212;7.542;2023-02-01T03:59:43;4.40;94.90
4755;DHT22;2391;47.212;7.542;2023-02-01T04:02:10;4.30;94.90
4755;DHT22;2391;47.212;7.542;2023-02-01T04:04:36;4.30;95.00
4755;DHT22;2391;47.212;7.542;2023-02-01T04:07:04;4.30;95.10
4755;DHT22;2391;47.212;7.542;2023-02-01T04:09:30;4.20;95.10
4755;DHT22;2391;47.212;7.542;2023-02-01T04:11:56;4.30;95.10
4755;DHT22;2391;47.212;7.542;2023-02-01T04:14:21;4.30;95.10
4755;DHT22;2391;47.212;7.542;2023-02-01T04:16:47;4.30;95.10
4755;DHT22;2391;47.212;7.542;2023-02-01T04:19:13;4.30;95.10
4755;DHT22;2391;47.212;7.542;2023-02-01T04:21:39;4.30;95.10
4755;DHT22;2391;47.212;7.542;2023-02-01T04:24:05;4.30;95.00
4755;DHT22;2391;47.212;7.542;2023-02-01T04:26:31;4.30;95.00
4755;DHT22;2391;47.212;7.542;2023-02-01T04:28:57;4.30;95.00
4755;DHT22;2391;47.212;7.542;2023-02-01T04:31:23;4.40;95.00
4755;DHT22;2391;47.212;7.542;2023-02-01T04:33:53;4.30;94.90
4755;DHT22;2391;47.212;7.542;2023-02-01T04:36:21;4.40;94.90
4755;DHT22;2391;47.212;7.542;2023-02-01T04:38:51;4.30;94.80
4755;DHT22;2391;47.212;7.542;2023-02-01T04:41:17;4.30;94.90
4755;DHT22;2391;47.212;7.542;2023-02-01T04:43:46;4.20;94.90
4755;DHT22;2391;47.212;7.542;2023-02-01T04:46:12;4.30;94.90
4755;DHT22;2391;47.212;7.542;2023-02-01T04:48:38;4.30;94.90
4755;DHT22;2391;47.212;7.542;2023-02-01T04:51:04;4.30;95.00
4755;DHT22;2391;47.212;7.542;2023-02-01T04:53:30;4.30;95.00
4755;DHT22;2391;47.212;7.542;2023-02-01T04:55:56;4.20;95.00
4755;DHT22;2391;47.212;7.542;2023-02-01T04:58:22;4.20;95.10
4755;DHT22;2391;47.212;7.542;2023-02-01T05:00:47;4.20;95.10
4755;DHT22;2391;47.212;7.542;2023-02-01T05:03:13;4.30;95.10
4755;DHT22;2391;47.212;7.542;2023-02-01T05:05:39;4.30;95.10
4755;DHT22;2391;47.212;7.542;2023-02-01T05:08:05;4.30;95.10
4755;DHT22;2391;47.212;7.542;2023-02-01T05:10:31;4.30;95.10
4755;DHT22;2391;47.212;7.542;2023-02-01T05:12:56;4.30;95.10
4755;DHT22;2391;47.212;7.542;2023-02-01T05:15:41;4.30;95.10
4755;DHT22;2391;47.212;7.542;2023-02-01T05:18:07;4.30;95.10
4755;DHT22;2391;47.212;7.542;2023-02-01T05:20:33;4.30;95.10
4755;DHT22;2391;47.212;7.542;2023-02-01T05:22:58;4.30;95.20
4755;DHT22;2391;47.212;7.542;2023-02-01T05:25:24;4.30;95.20
4755;DHT22;2391;47.212;7.542;2023-02-01T05:27:50;4.30;95.10
4755;DHT22;2391;47.212;7.542;2023-02-01T05:30:16;4.40;95.20
4755;DHT22;2391;47.212;7.542;2023-02-01T05:32:44;4.40;95.10
4755;DHT22;2391;47.212;7.542;2023-02-01T05:35:10;4.30;95.10
4755;DHT22;2391;47.212;7.542;2023-02-01T05:37:36;4.40;95.10
4755;DHT22;2391;47.212;7.542;2023-02-01T05:40:04;4.40;95.00
4755;DHT22;2391;47.212;7.542;2023-02-01T05:42:30;4.30;95.10
4755;DHT22;2391;47.212;7.542;2023-02-01T05:44:55;4.30;95.30
4755;DHT22;2391;47.212;7.542;2023-02-01T05:47:21;4.30;95.10
4755;DHT22;2391;47.212;7.542;2023-02-01T05:49:47;4.30;95.10
4755;DHT22;2391;47.212;7.542;2023-02-01T05:52:13;4.30;95.00
4755;DHT22;2391;47.212;7.542;2023-02-01T05:54:41;4.30;95.00
4755;DHT22;2391;47.212;7.542;2023-02-01T05:57:07;4.30;94.90
4755;DHT22;2391;47.212;7.542;2023-02-01T05:59:33;4.30;94.90
4755;DHT22;2391;47.212;7.542;2023-02-01T06:01:58;4.30;94.90
4755;DHT22;2391;47.212;7.542;2023-02-01T06:04:27;4.20;94.90
4755;DHT22;2391;47.212;7.542;2023-02-01T06:06:53;4.20;94.90
4755;DHT22;2391;47.212;7.542;2023-02-01T06:09:19;4.20;94.90
4755;DHT22;2391;47.212;7.542;2023-02-01T06:11:45;4.10;94.90
4755;DHT22;2391;47.212;7.542;2023-02-01T06:14:10;4.10;95.00
4755;DHT22;2391;47.212;7.542;2023-02-01T06:16:36;4.10;95.10
4755;DHT22;2391;47.212;7.542;2023-02-01T06:19:02;4.10;95.10
4755;DHT22;2391;47.212;7.542;2023-02-01T06:21:28;4.10;95.10
4755;DHT22;2391;47.212;7.542;2023-02-01T06:23:54;4.10;95.10
4755;DHT22;2391;47.212;7.542;2023-02-01T06:26:20;4.10;95.10
4755;DHT22;2391;47.212;7.542;2023-02-01T06:28:46;4.20;95.20
4755;DHT22;2391;47.212;7.542;2023-02-01T06:31:12;4.20;95.20
4755;DHT22;2391;47.212;7.542;2023-02-01T06:33:38;4.20;95.20
4755;DHT22;2391;47.212;7.542;2023-02-01T06:36:06;4.20;95.30
4755;DHT22;2391;47.212;7.542;2023-02-01T06:38:33;4.20;95.20
4755;DHT22;2391;47.212;7.542;2023-02-01T06:41:02;4.30;95.20
4755;DHT22;2391;47.212;7.542;2023-02-01T06:43:29;4.30;95.20
4755;DHT22;2391;47.212;7.542;2023-02-01T06:46:00;4.30;95.30
4755;DHT22;2391;47.212;7.542;2023-02-01T06:48:30;4.20;95.20
4755;DHT22;2391;47.212;7.542;2023-02-01T06:50:56;4.20;95.30
4755;DHT22;2391;47.212;7.542;2023-02-01T06:53:22;4.10;95.50
4755;DHT22;2391;47.212;7.542;2023-02-01T06:55:56;3.90;95.70
4755;DHT22;2391;47.212;7.542;2023-02-01T06:58:22;3.70;96.10
4755;DHT22;2391;47.212;7.542;2023-02-01T07:00:48;3.50;96.30
4755;DHT22;2391;47.212;7.542;2023-02-01T07:03:14;3.40;96.60
4755;DHT22;2391;47.212;7.542;2023-02-01T07:05:40;3.30;96.70
4755;DHT22;2391;47.212;7.542;2023-02-01T07:08:06;3.30;96.80
4755;DHT22;2391;47.212;7.542;2023-02-01T07:10:33;3.40;96.90
4755;DHT22;2391;47.212;7.542;2023-02-01T07:12:59;3.40;97.10
4755;DHT22;2391;47.212;7.542;2023-02-01T07:15:25;3.30;97.10
4755;DHT22;2391;47.212;7.542;2023-02-01T07:17:53;3.40;97.20
4755;DHT22;2391;47.212;7.542;2023-02-01T07:20:19;3.40;97.30
4755;DHT22;2391;47.212;7.542;2023-02-01T07:22:44;3.30;97.50
4755;DHT22;2391;47.212;7.542;2023-02-01T07:25:10;3.30;97.70
4755;DHT22;2391;47.212;7.542;2023-02-01T07:27:37;3.30;97.80
4755;DHT22;2391;47.212;7.542;2023-02-01T07:30:04;3.30;97.80
4755;DHT22;2391;47.212;7.542;2023-02-01T07:32:30;3.30;97.90
4755;DHT22;2391;47.212;7.542;2023-02-01T07:34:57;3.30;98.10
4755;DHT22;2391;47.212;7.542;2023-02-01T07:37:23;3.30;98.10
4755;DHT22;2391;47.212;7.542;2023-02-01T07:39:53;3.30;98.40
4755;DHT22;2391;47.212;7.542;2023-02-01T07:42:19;3.30;98.30
4755;DHT22;2391;47.212;7.542;2023-02-01T07:44:44;3.30;98.40
4755;DHT22;2391;47.212;7.542;2023-02-01T07:47:10;3.30;98.50
4755;DHT22;2391;47.212;7.542;2023-02-01T07:49:36;3.30;98.60
4755;DHT22;2391;47.212;7.542;2023-02-01T07:52:02;3.40;98.60
4755;DHT22;2391;47.212;7.542;2023-02-01T07:54:27;3.40;98.70
4755;DHT22;2391;47.212;7.542;2023-02-01T07:56:53;3.30;98.70
4755;DHT22;2391;47.212;7.542;2023-02-01T07:59:19;3.30;98.80
4755;DHT22;2391;47.212;7.542;2023-02-01T08:01:45;3.40;98.80
4755;DHT22;2391;47.212;7.542;2023-02-01T08:04:12;3.50;98.80
4755;DHT22;2391;47.212;7.542;2023-02-01T08:06:39;3.50;98.80
4755;DHT22;2391;47.212;7.542;2023-02-01T08:09:06;3.60;98.90
4755;DHT22;2391;47.212;7.542;2023-02-01T08:11:34;3.70;98.70
4755;DHT22;2391;47.212;7.542;2023-02-01T08:14:02;3.70;98.70
4755;DHT22;2391;47.212;7.542;2023-02-01T08:16:28;3.70;98.60
4755;DHT22;2391;47.212;7.542;2023-02-01T08:18:53;3.70;98.70
4755;DHT22;2391;47.212;7.542;2023-02-01T08:21:22;3.60;98.70
4755;DHT22;2391;47.212;7.542;2023-02-01T08:23:48;3.60;98.70
4755;DHT22;2391;47.212;7.542;2023-02-01T08:26:18;3.60;98.90
4755;DHT22;2391;47.212;7.542;2023-02-01T08:28:58;3.60;99.00
4755;DHT22;2391;47.212;7.542;2023-02-01T08:31:26;3.70;99.10
4755;DHT22;2391;47.212;7.542;2023-02-01T08:33:58;3.70;99.20
4755;DHT22;2391;47.212;7.542;2023-02-01T08:36:26;3.80;99.10
4755;DHT22;2391;47.212;7.542;2023-02-01T08:38:53;3.90;99.20
4755;DHT22;2391;47.212;7.542;2023-02-01T08:41:21;4.00;99.10
4755;DHT22;2391;47.212;7.542;2023-02-01T08:43:48;4.10;99.10
4755;DHT22;2391;47.212;7.542;2023-02-01T08:46:14;4.10;99.00
4755;DHT22;2391;47.212;7.542;2023-02-01T08:48:40;4.20;98.90
4755;DHT22;2391;47.212;7.542;2023-02-01T08:51:12;4.20;99.00
4755;DHT22;2391;47.212;7.542;2023-02-01T08:53:36;4.10;99.00
4755;DHT22;2391;47.212;7.542;2023-02-01T08:56:03;4.10;99.10
4755;DHT22;2391;47.212;7.542;2023-02-01T08:58:28;4.10;99.20
4755;DHT22;2391;47.212;7.542;2023-02-01T09:00:54;4.10;99.20
4755;DHT22;2391;47.212;7.542;2023-02-01T09:03:20;4.10;99.30
4755;DHT22;2391;47.212;7.542;2023-02-01T09:05:46;4.00;99.40
4755;DHT22;2391;47.212;7.542;2023-02-01T09:08:13;4.00;99.50
4755;DHT22;2391;47.212;7.542;2023-02-01T09:10:41;4.00;99.80
4755;DHT22;2391;47.212;7.542;2023-02-01T09:13:08;4.00;99.80
4755;DHT22;2391;47.212;7.542;2023-02-01T09:15:34;4.00;99.90
4755;DHT22;2391;47.212;7.542;2023-02-01T09:18:00;4.00;99.90
4755;DHT22;2391;47.212;7.542;2023-02-01T09:20:26;4.10;99.90
4755;DHT22;2391;47.212;7.542;2023-02-01T09:22:54;4.10;99.90
4755;DHT22;2391;47.212;7.542;2023-02-01T09:25:20;4.10;99.90
4755;DHT22;2391;47.212;7.542;2023-02-01T09:27:46;4.10;99.90
4755;DHT22;2391;47.212;7.542;2023-02-01T09:30:12;4.20;99.90
4755;DHT22;2391;47.212;7.542;2023-02-01T09:32:38;4.20;99.90
4755;DHT22;2391;47.212;7.542;2023-02-01T09:35:04;4.30;99.90
4755;DHT22;2391;47.212;7.542;2023-02-01T09:37:30;4.30;99.90
4755;DHT22;2391;47.212;7.542;2023-02-01T09:39:55;4.30;99.90
4755;DHT22;2391;47.212;7.542;2023-02-01T09:45:29;4.40;99.90
4755;DHT22;2391;47.212;7.542;2023-02-01T09:47:57;4.40;99.90
4755;DHT22;2391;47.212;7.542;2023-02-01T09:50:35;4.40;99.90
4755;DHT22;2391;47.212;7.542;2023-02-01T09:53:24;4.40;99.90
4755;DHT22;2391;47.212;7.542;2023-02-01T09:55:51;4.50;99.90
4755;DHT22;2391;47.212;7.542;2023-02-01T10:01:02;4.50;99.90
4755;DHT22;2391;47.212;7.542;2023-02-01T10:03:30;4.60;99.90
4755;DHT22;2391;47.212;7.542;2023-02-01T10:09:07;4.70;99.90
4755;DHT22;2391;47.212;7.542;2023-02-01T10:17:23;4.70;99.90
4755;DHT22;2391;47.212;7.542;2023-02-01T10:20:04;4.70;99.90
4755;DHT22;2391;47.212;7.542;2023-02-01T10:22:59;4.80;99.90
4755;DHT22;2391;47.212;7.542;2023-02-01T10:25:50;4.80;99.90
4755;DHT22;2391;47.212;7.542;2023-02-01T10:28:15;4.90;99.90
4755;DHT22;2391;47.212;7.542;2023-02-01T10:30:45;4.90;99.90
4755;DHT22;2391;47.212;7.542;2023-02-01T10:33:22;5.00;99.90
4755;DHT22;2391;47.212;7.542;2023-02-01T10:35:49;5.10;99.90
4755;DHT22;2391;47.212;7.542;2023-02-01T10:38:23;5.10;99.90
4755;DHT22;2391;47.212;7.542;2023-02-01T10:40:48;5.20;99.90
4755;DHT22;2391;47.212;7.542;2023-02-01T10:43:14;5.20;99.90
4755;DHT22;2391;47.212;7.542;2023-02-01T10:45:41;5.20;99.90
4755;DHT22;2391;47.212;7.542;2023-02-01T10:48:08;5.30;99.90
4755;DHT22;2391;47.212;7.542;2023-02-01T10:50:53;5.30;99.90
4755;DHT22;2391;47.212;7.542;2023-02-01T10:53:44;5.30;99.90
4755;DHT22;2391;47.212;7.542;2023-02-01T10:56:12;5.30;99.90
4755;DHT22;2391;47.212;7.542;2023-02-01T10:58:47;5.40;99.90
4755;DHT22;2391;47.212;7.542;2023-02-01T11:01:19;5.40;99.90
4755;DHT22;2391;47.212;7.542;2023-02-01T11:03:56;5.50;99.90
4755;DHT22;2391;47.212;7.542;2023-02-01T11:06:32;5.50;99.90
4755;DHT22;2391;47.212;7.542;2023-02-01T11:16:49;5.60;99.90
4755;DHT22;2391;47.212;7.542;2023-02-01T11:19:17;5.70;99.90
4755;DHT22;2391;47.212;7.542;2023-02-01T11:21:44;5.80;99.90
4755;DHT22;2391;47.212;7.542;2023-02-01T11:24:34;5.80;99.90
4755;DHT22;2391;47.212;7.542;2023-02-01T11:27:13;5.80;99.90
4755;DHT22;2391;47.212;7.542;2023-02-01T11:29:36;5.70;99.90
4755;DHT22;2391;47.212;7.542;2023-02-01T11:32:03;5.70;99.90
4755;DHT22;2391;47.212;7.542;2023-02-01T11:34:40;5.70;99.90
4755;DHT22;2391;47.212;7.542;2023-02-01T11:37:03;5.70;99.90
4755;DHT22;2391;47.212;7.542;2023-02-01T11:39:32;5.80;99.90
4755;DHT22;2391;47.212;7.542;2023-02-01T11:42:16;5.90;99.90
4755;DHT22;2391;47.212;7.542;2023-02-01T11:44:44;5.90;99.90
4755;DHT22;2391;47.212;7.542;2023-02-01T11:47:25;6.00;99.90
4755;DHT22;2391;47.212;7.542;2023-02-01T11:49:57;6.00;99.90
4755;DHT22;2391;47.212;7.542;2023-02-01T12:06:49;6.10;99.90
4755;DHT22;2391;47.212;7.542;2023-02-01T12:09:38;6.30;99.90
4755;DHT22;2391;47.212;7.542;2023-02-01T12:12:17;6.40;99.90
4755;DHT22;2391;47.212;7.542;2023-02-01T12:28:45;6.70;99.90
4755;DHT22;2391;47.212;7.542;2023-02-01T12:31:45;6.70;99.90
4755;DHT22;2391;47.212;7.542;2023-02-01T12:42:22;6.60;99.90
4755;DHT22;2391;47.212;7.542;2023-02-01T12:45:11;6.70;99.90
4755;DHT22;2391;47.212;7.542;2023-02-01T12:47:45;6.70;99.30
4755;DHT22;2391;47.212;7.542;2023-02-01T12:50:18;6.70;99.20
4755;DHT22;2391;47.212;7.542;2023-02-01T12:52:49;6.70;98.90
4755;DHT22;2391;47.212;7.542;2023-02-01T12:55:20;6.80;98.80
4755;DHT22;2391;47.212;7.542;2023-02-01T12:57:49;6.80;98.60
4755;DHT22;2391;47.212;7.542;2023-02-01T13:00:32;6.70;98.70
4755;DHT22;2391;47.212;7.542;2023-02-01T13:05:53;6.70;99.10
4755;DHT22;2391;47.212;7.542;2023-02-01T13:08:25;6.60;99.00
4755;DHT22;2391;47.212;7.542;2023-02-01T13:11:03;6.50;99.20
4755;DHT22;2391;47.212;7.542;2023-02-01T13:16:18;6.60;99.80
4755;DHT22;2391;47.212;7.542;2023-02-01T13:18:47;6.70;99.50
4755;DHT22;2391;47.212;7.542;2023-02-01T13:21:17;6.80;99.30
4755;DHT22;2391;47.212;7.542;2023-02-01T13:23:46;6.90;99.10
4755;DHT22;2391;47.212;7.542;2023-02-01T13:26:12;7.00;98.60
4755;DHT22;2391;47.212;7.542;2023-02-01T13:28:53;7.10;98.10
4755;DHT22;2391;47.212;7.542;2023-02-01T13:31:34;7.20;96.60
4755;DHT22;2391;47.212;7.542;2023-02-01T13:42:28;7.10;93.40
4755;DHT22;2391;47.212;7.542;2023-02-01T13:45:05;7.00;93.20
4755;DHT22;2391;47.212;7.542;2023-02-01T13:47:42;7.00;92.90
4755;DHT22;2391;47.212;7.542;2023-02-01T13:52:58;7.00;92.70
4755;DHT22;2391;47.212;7.542;2023-02-01T13:55:33;7.10;92.50
4755;DHT22;2391;47.212;7.542;2023-02-01T13:58:03;7.20;92.00
4755;DHT22;2391;47.212;7.542;2023-02-01T14:00:32;7.20;91.80
4755;DHT22;2391;47.212;7.542;2023-02-01T14:10:54;7.50;91.90
4755;DHT22;2391;47.212;7.542;2023-02-01T14:23:58;7.50;91.20
4755;DHT22;2391;47.212;7.542;2023-02-01T14:32:00;7.50;91.30
4755;DHT22;2391;47.212;7.542;2023-02-01T14:37:23;7.60;91.30
4755;DHT22;2391;47.212;7.542;2023-02-01T14:47:39;7.70;91.20
4755;DHT22;2391;47.212;7.542;2023-02-01T14:55:42;7.50;91.70
4755;DHT22;2391;47.212;7.542;2023-02-01T15:04:09;7.50;92.20
4755;DHT22;2391;47.212;7.542;2023-02-01T15:12:08;7.40;91.80
4755;DHT22;2391;47.212;7.542;2023-02-01T15:14:37;7.30;92.10
4755;DHT22;2391;47.212;7.542;2023-02-01T15:19:55;7.20;92.30
4755;DHT22;2391;47.212;7.542;2023-02-01T15:22:21;7.20;92.50
4755;DHT22;2391;47.212;7.542;2023-02-01T15:24:59;7.20;92.60
4755;DHT22;2391;47.212;7.542;2023-02-01T15:27:26;7.20;92.60
4755;DHT22;2391;47.212;7.542;2023-02-01T15:29:52;7.30;92.80
4755;DHT22;2391;47.212;7.542;2023-02-01T15:32:39;7.30;92.80
4755;DHT22;2391;47.212;7.542;2023-02-01T15:35:05;7.30;92.70
4755;DHT22;2391;47.212;7.542;2023-02-01T15:37:31;7.40;92.80
4755;DHT22;2391;47.212;7.542;2023-02-01T15:42:56;7.40;92.50
4755;DHT22;2391;47.212;7.542;2023-02-01T15:45:25;7.30;92.30
4755;DHT22;2391;47.212;7.542;2023-02-01T15:47:54;7.30;92.50
4755;DHT22;2391;47.212;7.542;2023-02-01T15:50:21;7.30;92.70
4755;DHT22;2391;47.212;7.542;2023-02-01T15:52:50;7.30;92.70
4755;DHT22;2391;47.212;7.542;2023-02-01T15:55:23;7.30;92.80
4755;DHT22;2391;47.212;7.542;2023-02-01T15:57:46;7.40;92.40
4755;DHT22;2391;47.212;7.542;2023-02-01T16:00:24;7.30;92.50
4755;DHT22;2391;47.212;7.542;2023-02-01T16:02:58;7.30;92.20
4755;DHT22;2391;47.212;7.542;2023-02-01T16:05:36;7.30;92.20
4755;DHT22;2391;47.212;7.542;2023-02-01T16:08:16;7.20;92.20
4755;DHT22;2391;47.212;7.542;2023-02-01T16:10:44;7.10;92.70
4755;DHT22;2391;47.212;7.542;2023-02-01T16:13:12;7.10;92.50
4755;DHT22;2391;47.212;7.542;2023-02-01T16:15:38;7.00;92.40
4755;DHT22;2391;47.212;7.542;2023-02-01T16:18:05;7.00;92.40
4755;DHT22;2391;47.212;7.542;2023-02-01T16:20:34;7.00;92.20
4755;DHT22;2391;47.212;7.542;2023-02-01T16:23:02;7.00;92.10
4755;DHT22;2391;47.212;7.542;2023-02-01T16:25:28;7.00;92.40
4755;DHT22;2391;47.212;7.542;2023-02-01T16:27:54;6.90;92.50
4755;DHT22;2391;47.212;7.542;2023-02-01T16:30:20;6.90;92.50
4755;DHT22;2391;47.212;7.542;2023-02-01T16:32:52;6.80;92.70
4755;DHT22;2391;47.212;7.542;2023-02-01T16:35:31;6.90;92.70
4755;DHT22;2391;47.212;7.542;2023-02-01T16:37:59;6.90;92.70
4755;DHT22;2391;47.212;7.542;2023-02-01T16:40:25;7.00;92.70
4755;DHT22;2391;47.212;7.542;2023-02-01T16:42:53;7.00;92.80
4755;DHT22;2391;47.212;7.542;2023-02-01T16:45:22;7.10;92.40
4755;DHT22;2391;47.212;7.542;2023-02-01T16:47:54;7.10;92.40
4755;DHT22;2391;47.212;7.542;2023-02-01T16:50:22;7.10;92.40
4755;DHT22;2391;47.212;7.542;2023-02-01T16:52:48;7.20;92.40
4755;DHT22;2391;47.212;7.542;2023-02-01T16:55:16;7.20;92.40
4755;DHT22;2391;47.212;7.542;2023-02-01T16:57:43;7.20;92.50
4755;DHT22;2391;47.212;7.542;2023-02-01T17:00:11;7.10;92.50
4755;DHT22;2391;47.212;7.542;2023-02-01T17:02:38;7.10;92.50
4755;DHT22;2391;47.212;7.542;2023-02-01T17:05:05;7.00;92.70
4755;DHT22;2391;47.212;7.542;2023-02-01T17:07:31;7.00;92.80
4755;DHT22;2391;47.212;7.542;2023-02-01T17:09:57;7.00;92.80
4755;DHT22;2391;47.212;7.542;2023-02-01T17:12:29;7.00;92.90
4755;DHT22;2391;47.212;7.542;2023-02-01T17:14:56;6.90;92.90
4755;DHT22;2391;47.212;7.542;2023-02-01T17:17:25;6.90;93.00
4755;DHT22;2391;47.212;7.542;2023-02-01T17:19:52;6.80;92.80
4755;DHT22;2391;47.212;7.542;2023-02-01T17:22:20;6.80;92.90
4755;DHT22;2391;47.212;7.542;2023-02-01T17:24:46;6.80;93.10
4755;DHT22;2391;47.212;7.542;2023-02-01T17:27:12;6.80;93.20
4755;DHT22;2391;47.212;7.542;2023-02-01T17:29:38;6.80;93.10
4755;DHT22;2391;47.212;7.542;2023-02-01T17:32:08;6.80;93.10
4755;DHT22;2391;47.212;7.542;2023-02-01T17:34:34;6.90;93.20
4755;DHT22;2391;47.212;7.542;2023-02-01T17:37:00;7.00;93.00
4755;DHT22;2391;47.212;7.542;2023-02-01T17:39:26;7.00;93.00
4755;DHT22;2391;47.212;7.542;2023-02-01T17:42:11;7.00;92.90
4755;DHT22;2391;47.212;7.542;2023-02-01T17:44:37;7.00;92.90
4755;DHT22;2391;47.212;7.542;2023-02-01T17:47:03;7.00;93.00
4755;DHT22;2391;47.212;7.542;2023-02-01T17:49:28;6.90;92.90
4755;DHT22;2391;47.212;7.542;2023-02-01T17:51:56;6.90;93.30
4755;DHT22;2391;47.212;7.542;2023-02-01T17:54:22;6.70;93.10
4755;DHT22;2391;47.212;7.542;2023-02-01T17:56:48;6.70;93.30
4755;DHT22;2391;47.212;7.542;2023-02-01T17:59:14;6.70;93.20
4755;DHT22;2391;47.212;7.542;2023-02-01T18:01:40;6.70;93.20
4755;DHT22;2391;47.212;7.542;2023-02-01T18:04:15;6.70;93.20
4755;DHT22;2391;47.212;7.542;2023-02-01T18:06:41;6.70;93.30
4755;DHT22;2391;47.212;7.542;2023-02-01T18:09:07;6.70;93.40
4755;DHT22;2391;47.212;7.542;2023-02-01T18:11:33;6.70;93.50
4755;DHT22;2391;47.212;7.542;2023-02-01T18:13:59;6.60;93.70
4755;DHT22;2391;47.212;7.542;2023-02-01T18:16:27;6.60;93.80
4755;DHT22;2391;47.212;7.542;2023-02-01T18:18:54;6.60;93.80
4755;DHT22;2391;47.212;7.542;2023-02-01T18:21:22;6.60;93.80
4755;DHT22;2391;47.212;7.542;2023-02-01T18:23:48;6.60;93.90
4755;DHT22;2391;47.212;7.542;2023-02-01T18:26:16;6.60;93.90
4755;DHT22;2391;47.212;7.542;2023-02-01T18:28:42;6.60;93.90
4755;DHT22;2391;47.212;7.542;2023-02-01T18:31:23;6.60;93.80
4755;DHT22;2391;47.212;7.542;2023-02-01T18:33:50;6.60;94.00
4755;DHT22;2391;47.212;7.542;2023-02-01T18:36:17;6.70;94.00
4755;DHT22;2391;47.212;7.542;2023-02-01T18:38:43;6.70;94.10
4755;DHT22;2391;47.212;7.542;2023-02-01T18:41:17;6.70;94.10
4755;DHT22;2391;47.212;7.542;2023-02-01T18:43:46;6.70;94.20
4755;DHT22;2391;47.212;7.542;2023-02-01T18:46:12;6.60;94.30
4755;DHT22;2391;47.212;7.542;2023-02-01T18:48:40;6.60;94.40
4755;DHT22;2391;47.212;7.542;2023-02-01T18:51:17;6.60;94.40
4755;DHT22;2391;47.212;7.542;2023-02-01T18:53:48;6.70;94.30
4755;DHT22;2391;47.212;7.542;2023-02-01T18:56:14;6.70;94.20
4755;DHT22;2391;47.212;7.542;2023-02-01T18:58:41;6.70;94.10
4755;DHT22;2391;47.212;7.542;2023-02-01T19:01:13;6.70;93.90
4755;DHT22;2391;47.212;7.542;2023-02-01T19:03:40;6.70;93.80
4755;DHT22;2391;47.212;7.542;2023-02-01T19:06:07;6.70;93.60
4755;DHT22;2391;47.212;7.542;2023-02-01T19:08:32;6.70;93.40
4755;DHT22;2391;47.212;7.542;2023-02-01T19:10:58;6.70;93.40
4755;DHT22;2391;47.212;7.542;2023-02-01T19:13:25;6.70;93.20
4755;DHT22;2391;47.212;7.542;2023-02-01T19:15:52;6.70;93.10
4755;DHT22;2391;47.212;7.542;2023-02-01T19:18:18;6.60;93.10
4755;DHT22;2391;47.212;7.542;2023-02-01T19:20:48;6.60;93.30
4755;DHT22;2391;47.212;7.542;2023-02-01T19:23:17;6.60;93.30
4755;DHT22;2391;47.212;7.542;2023-02-01T19:25:47;6.60;93.20
4755;DHT22;2391;47.212;7.542;2023-02-01T19:28:14;6.60;93.20
4755;DHT22;2391;47.212;7.542;2023-02-01T19:30:40;6.60;93.20